Time;durP1;ratioP1;P1;durP2;ratioP2;P2;SDS_P1;SDS_P2;PMS_P1;PMS_P2;Temp;Humidity;BMP_temperature;BMP_pressure;BME280_temperature;BME280_humidity;BME280_pressure;Samples;Min_cycle;Max_cycle;Signal;HPM_P1;HPM_P2
2023/07/20 00:01:46;;;;;;;1.90;1.38;;;;;;;;;;5060811;28;20088;-70
2023/07/20 00:04:12;;;;;;;1.67;1.52;;;;;;;;;;5070203;28;20044;-69
2023/07/20 00:06:40;;;;;;;1.83;1.50;;;;;;;;;;5069549;28;20043;-68
2023/07/20 00:09:07;;;;;;;1.70;1.60;;;;;;;;;;5050130;28;20049;-68
2023/07/20 00:11:36;;;;;;;2.35;1.60;;;;;;;;;;5064959;28;20066;-69
2023/07/20 00:14:02;;;;;;;3.13;1.50;;;;;;;;;;5070940;28;20458;-69
2023/07/20 00:16:30;;;;;;;2.92;1.60;;;;;;;;;;5067737;28;20487;-68
2023/07/20 00:18:57;;;;;;;1.80;1.70;;;;;;;;;;5053943;28;20443;-69
2023/07/20 00:21:23;;;;;;;2.28;1.70;;;;;;;;;;5059770;28;20040;-69
2023/07/20 00:23:49;;;;;;;3.00;2.00;;;;;;;;;;5050742;28;20136;-69
2023/07/20 00:26:15;;;;;;;3.70;1.70;;;;;;;;;;5049441;28;20049;-69
2023/07/20 00:28:41;;;;;;;3.28;1.65;;;;;;;;;;5064403;28;20049;-69
2023/07/20 00:31:07;;;;;;;2.05;1.50;;;;;;;;;;5052323;28;20087;-68
2023/07/20 00:33:33;;;;;;;2.45;1.60;;;;;;;;;;5068115;28;20037;-69
2023/07/20 00:35:59;;;;;;;2.13;1.50;;;;;;;;;;5043092;28;20546;-69
2023/07/20 00:38:25;;;;;;;3.13;1.80;;;;;;;;;;5033827;28;20048;-69
2023/07/20 00:40:51;;;;;;;4.13;1.60;;;;;;;;;;5051235;28;20128;-68
2023/07/20 00:43:18;;;;;;;1.92;1.60;;;;;;;;;;5054970;28;20040;-68
2023/07/20 00:45:44;;;;;;;3.13;1.60;;;;;;;;;;5033479;28;20085;-71
2023/07/20 00:48:11;;;;;;;2.83;1.70;;;;;;;;;;5040661;28;20068;-71
2023/07/20 00:50:37;;;;;;;2.13;1.55;;;;;;;;;;5070685;28;20086;-71
2023/07/20 00:53:07;;;;;;;1.73;1.63;;;;;;;;;;5057090;28;20581;-69
2023/07/20 00:55:33;;;;;;;2.42;1.90;;;;;;;;;;5033220;28;20052;-69
2023/07/20 00:58:00;;;;;;;3.33;1.80;;;;;;;;;;5049924;28;20049;-69
2023/07/20 01:00:27;;;;;;;2.47;1.52;;;;;;;;;;5053173;28;20105;-69
2023/07/20 01:02:53;;;;;;;1.95;1.60;;;;;;;;;;5044384;28;20053;-69
2023/07/20 01:05:20;;;;;;;1.70;1.60;;;;;;;;;;5043311;28;20080;-69
2023/07/20 01:07:49;;;;;;;1.50;1.50;;;;;;;;;;5054393;28;20037;-68
2023/07/20 01:10:23;;;;;;;2.33;1.70;;;;;;;;;;5046443;28;20436;-69
2023/07/20 01:12:53;;;;;;;2.17;1.67;;;;;;;;;;5035419;28;20052;-69
2023/07/20 01:15:19;;;;;;;1.70;1.60;;;;;;;;;;5046704;28;20492;-68
2023/07/20 01:17:45;;;;;;;2.90;1.40;;;;;;;;;;5071064;28;20062;-68
2023/07/20 01:20:16;;;;;;;2.70;1.50;;;;;;;;;;5069478;28;20098;-68
2023/07/20 01:22:51;;;;;;;2.67;1.58;;;;;;;;;;5049162;28;20506;-68
2023/07/20 01:25:38;;;;;;;1.73;1.50;;;;;;;;;;5052272;28;20063;-69
2023/07/20 01:28:23;;;;;;;1.60;1.42;;;;;;;;;;5066183;28;20056;-68
2023/07/20 01:30:54;;;;;;;2.13;1.60;;;;;;;;;;5051879;28;20045;-68
2023/07/20 01:33:32;;;;;;;3.85;1.60;;;;;;;;;;5037024;28;20511;-71
2023/07/20 01:35:59;;;;;;;1.60;1.50;;;;;;;;;;5072847;28;20045;-69
2023/07/20 01:38:25;;;;;;;1.67;1.58;;;;;;;;;;5067260;28;20048;-69
2023/07/20 01:40:51;;;;;;;3.30;1.70;;;;;;;;;;5072129;28;20127;-69
2023/07/20 01:43:18;;;;;;;2.75;1.70;;;;;;;;;;5066320;28;20048;-69
2023/07/20 01:45:44;;;;;;;2.03;1.50;;;;;;;;;;5056253;28;20055;-69
2023/07/20 01:48:11;;;;;;;1.70;1.60;;;;;;;;;;5073392;28;20484;-69
2023/07/20 01:50:37;;;;;;;3.45;1.80;;;;;;;;;;5063922;28;20056;-69
2023/07/20 01:53:03;;;;;;;2.22;1.60;;;;;;;;;;5053449;28;20037;-69
2023/07/20 01:55:30;;;;;;;1.75;1.63;;;;;;;;;;5060486;28;20044;-69
2023/07/20 01:57:56;;;;;;;2.20;1.70;;;;;;;;;;5072098;28;20048;-69
2023/07/20 02:00:25;;;;;;;1.83;1.73;;;;;;;;;;5050958;28;20068;-69
2023/07/20 02:02:51;;;;;;;2.65;1.80;;;;;;;;;;5036124;28;20052;-69
2023/07/20 02:05:17;;;;;;;2.45;1.67;;;;;;;;;;5050150;28;20068;-69
2023/07/20 02:07:43;;;;;;;1.70;1.60;;;;;;;;;;5052433;28;20056;-69
2023/07/20 02:10:10;;;;;;;2.03;1.92;;;;;;;;;;5054627;28;20053;-69
2023/07/20 02:12:36;;;;;;;1.90;1.70;;;;;;;;;;5050824;28;20092;-69
2023/07/20 02:15:03;;;;;;;2.13;1.70;;;;;;;;;;5051972;28;20041;-69
2023/07/20 02:17:29;;;;;;;2.08;1.63;;;;;;;;;;5035873;28;20052;-69
2023/07/20 02:19:57;;;;;;;1.80;1.70;;;;;;;;;;5054229;28;20052;-69
2023/07/20 02:22:23;;;;;;;2.58;1.70;;;;;;;;;;5052419;28;20086;-70
2023/07/20 02:24:50;;;;;;;1.80;1.67;;;;;;;;;;5069870;28;20056;-69
2023/07/20 02:27:16;;;;;;;1.77;1.67;;;;;;;;;;5071719;28;20088;-69
2023/07/20 02:29:42;;;;;;;1.85;1.75;;;;;;;;;;5070934;28;20055;-69
2023/07/20 02:32:09;;;;;;;1.80;1.70;;;;;;;;;;5073601;28;20395;-69
2023/07/20 02:34:36;;;;;;;2.05;1.70;;;;;;;;;;5043531;28;20503;-69
2023/07/20 02:37:02;;;;;;;1.77;1.67;;;;;;;;;;5052706;28;20582;-69
2023/07/20 02:39:28;;;;;;;6.88;1.88;;;;;;;;;;5052731;28;20049;-69
2023/07/20 02:41:54;;;;;;;1.65;1.55;;;;;;;;;;5049778;28;20484;-69
2023/07/20 02:44:21;;;;;;;3.65;1.83;;;;;;;;;;5049076;28;20563;-69
2023/07/20 02:46:47;;;;;;;3.33;1.65;;;;;;;;;;5071669;28;20143;-69
2023/07/20 02:49:13;;;;;;;6.82;1.90;;;;;;;;;;5066876;28;20083;-69
2023/07/20 02:51:39;;;;;;;2.00;1.70;;;;;;;;;;5043521;28;20245;-70
2023/07/20 02:54:05;;;;;;;2.60;1.80;;;;;;;;;;5059643;28;20056;-70
2023/07/20 02:56:31;;;;;;;3.30;1.70;;;;;;;;;;5048486;28;20040;-70
2023/07/20 02:58:57;;;;;;;2.47;1.70;;;;;;;;;;5067280;28;20502;-69
2023/07/20 03:01:23;;;;;;;1.80;1.70;;;;;;;;;;5053184;28;20048;-70
2023/07/20 03:03:49;;;;;;;1.85;1.70;;;;;;;;;;5053726;28;20048;-69
2023/07/20 03:06:15;;;;;;;2.25;1.80;;;;;;;;;;5070835;28;20055;-69
2023/07/20 03:08:46;;;;;;;2.60;1.75;;;;;;;;;;5036187;28;20041;-69
2023/07/20 03:11:12;;;;;;;1.92;1.50;;;;;;;;;;5056157;28;20044;-70
2023/07/20 03:13:38;;;;;;;1.83;1.70;;;;;;;;;;5049229;28;20049;-70
2023/07/20 03:16:04;;;;;;;2.13;1.83;;;;;;;;;;5069600;28;20047;-70
2023/07/20 03:18:30;;;;;;;3.13;1.75;;;;;;;;;;5054062;28;20044;-70
2023/07/20 03:20:57;;;;;;;2.30;1.75;;;;;;;;;;5044698;28;20049;-70
2023/07/20 03:23:23;;;;;;;2.38;1.98;;;;;;;;;;5067606;28;20448;-70
2023/07/20 03:25:49;;;;;;;1.98;1.67;;;;;;;;;;5071282;28;20484;-70
2023/07/20 03:28:16;;;;;;;2.55;1.73;;;;;;;;;;5034795;28;20103;-70
2023/07/20 03:30:42;;;;;;;2.80;1.75;;;;;;;;;;5050552;28;20060;-70
2023/07/20 03:33:08;;;;;;;1.98;1.88;;;;;;;;;;5034238;28;20098;-69
2023/07/20 03:35:34;;;;;;;3.35;2.00;;;;;;;;;;5042986;28;20045;-70
2023/07/20 03:38:00;;;;;;;2.67;2.00;;;;;;;;;;5019299;28;20069;-70
2023/07/20 03:40:26;;;;;;;2.20;1.98;;;;;;;;;;5031806;28;20416;-70
2023/07/20 03:42:52;;;;;;;2.22;2.03;;;;;;;;;;5018481;28;20060;-70
2023/07/20 03:45:18;;;;;;;2.10;1.80;;;;;;;;;;5047191;28;20057;-70
2023/07/20 03:47:44;;;;;;;2.28;1.83;;;;;;;;;;5033095;28;20045;-70
2023/07/20 03:50:10;;;;;;;3.65;2.08;;;;;;;;;;5033572;28;20059;-70
2023/07/20 03:52:36;;;;;;;3.83;2.05;;;;;;;;;;5052337;28;20041;-70
2023/07/20 03:55:02;;;;;;;3.90;2.00;;;;;;;;;;5029397;28;20047;-70
2023/07/20 03:57:28;;;;;;;3.33;2.15;;;;;;;;;;5031225;28;20041;-70
2023/07/20 03:59:55;;;;;;;5.07;2.05;;;;;;;;;;5040401;28;20463;-70
2023/07/20 04:02:21;;;;;;;3.75;2.00;;;;;;;;;;5033209;28;20048;-70
2023/07/20 04:04:47;;;;;;;2.35;2.08;;;;;;;;;;5052062;28;20040;-70
2023/07/20 04:07:13;;;;;;;2.70;2.03;;;;;;;;;;5050712;28;20470;-70
2023/07/20 04:09:40;;;;;;;3.35;2.20;;;;;;;;;;5040858;28;20519;-70
2023/07/20 04:12:06;;;;;;;3.10;2.00;;;;;;;;;;5050218;28;20161;-70
2023/07/20 04:14:35;;;;;;;5.20;1.88;;;;;;;;;;5048900;28;20036;-70
2023/07/20 04:17:01;;;;;;;3.53;2.10;;;;;;;;;;5051789;28;20051;-70
2023/07/20 04:19:27;;;;;;;3.78;1.80;;;;;;;;;;5052445;28;20119;-70
2023/07/20 04:21:53;;;;;;;3.28;1.80;;;;;;;;;;5042588;28;20437;-70
2023/07/20 04:24:19;;;;;;;2.60;1.90;;;;;;;;;;5048533;28;20481;-70
2023/07/20 04:26:45;;;;;;;2.17;2.00;;;;;;;;;;5053364;28;20052;-70
2023/07/20 04:29:11;;;;;;;2.72;1.80;;;;;;;;;;5063122;28;20048;-70
2023/07/20 04:31:37;;;;;;;2.20;2.00;;;;;;;;;;5069336;28;20555;-70
2023/07/20 04:34:03;;;;;;;3.20;2.00;;;;;;;;;;5040188;28;20124;-70
2023/07/20 04:36:29;;;;;;;5.53;2.10;;;;;;;;;;5033278;28;20488;-70
2023/07/20 04:38:55;;;;;;;2.10;2.00;;;;;;;;;;5056545;28;20558;-70
2023/07/20 04:41:21;;;;;;;2.67;1.77;;;;;;;;;;5064358;28;20048;-70
2023/07/20 04:43:47;;;;;;;4.00;1.98;;;;;;;;;;5070554;28;20032;-70
2023/07/20 04:46:13;;;;;;;2.55;1.88;;;;;;;;;;5066794;28;20048;-70
2023/07/20 04:48:40;;;;;;;3.42;1.88;;;;;;;;;;5052344;28;20053;-70
2023/07/20 04:51:06;;;;;;;5.10;2.00;;;;;;;;;;5069780;28;20110;-70
2023/07/20 04:53:32;;;;;;;3.38;2.00;;;;;;;;;;5053536;28;20052;-70
2023/07/20 04:56:01;;;;;;;3.85;1.90;;;;;;;;;;5065079;28;20049;-70
2023/07/20 04:58:27;;;;;;;2.03;1.80;;;;;;;;;;5070954;28;20076;-70
2023/07/20 05:00:53;;;;;;;2.40;1.90;;;;;;;;;;5071572;28;20044;-70
2023/07/20 05:03:19;;;;;;;3.83;1.90;;;;;;;;;;5073017;28;20055;-70
2023/07/20 05:05:47;;;;;;;3.35;1.80;;;;;;;;;;5075221;28;20045;-70
2023/07/20 05:08:13;;;;;;;2.80;1.80;;;;;;;;;;5057172;28;20418;-70
2023/07/20 05:10:39;;;;;;;3.38;1.70;;;;;;;;;;5058456;28;20075;-71
2023/07/20 05:13:05;;;;;;;3.67;1.80;;;;;;;;;;5066718;28;20123;-69
2023/07/20 05:15:33;;;;;;;3.05;1.80;;;;;;;;;;5053948;28;20041;-70
2023/07/20 05:18:00;;;;;;;5.05;1.80;;;;;;;;;;5074204;28;20052;-70
2023/07/20 05:20:26;;;;;;;3.35;1.80;;;;;;;;;;5057322;28;20044;-69
2023/07/20 05:22:53;;;;;;;2.00;1.75;;;;;;;;;;5067908;28;20071;-70
2023/07/20 05:25:19;;;;;;;2.38;1.90;;;;;;;;;;5054164;28;20479;-70
2023/07/20 05:27:46;;;;;;;4.32;2.45;;;;;;;;;;5058098;28;20084;-70
2023/07/20 05:30:12;;;;;;;2.28;1.98;;;;;;;;;;5051454;28;20094;-70
2023/07/20 05:32:38;;;;;;;2.22;2.00;;;;;;;;;;5034183;28;20463;-70
2023/07/20 05:35:04;;;;;;;2.05;1.90;;;;;;;;;;5056419;28;20077;-70
2023/07/20 05:37:30;;;;;;;5.20;2.20;;;;;;;;;;5073349;28;20092;-70
2023/07/20 05:39:56;;;;;;;2.05;1.95;;;;;;;;;;5039385;28;20502;-70
2023/07/20 05:42:22;;;;;;;3.30;1.83;;;;;;;;;;5040858;28;20090;-70
2023/07/20 05:44:49;;;;;;;3.45;1.83;;;;;;;;;;5071802;28;20048;-70
2023/07/20 05:47:15;;;;;;;2.85;1.80;;;;;;;;;;5051116;28;20044;-71
2023/07/20 05:49:42;;;;;;;3.47;2.05;;;;;;;;;;5054360;28;20041;-69
2023/07/20 05:52:08;;;;;;;2.88;1.83;;;;;;;;;;5070949;28;20127;-70
2023/07/20 05:54:34;;;;;;;5.47;1.90;;;;;;;;;;5045936;28;20052;-69
2023/07/20 05:57:00;;;;;;;3.65;1.90;;;;;;;;;;5054468;28;20454;-69
2023/07/20 05:59:29;;;;;;;3.88;1.80;;;;;;;;;;5035876;28;20182;-69
2023/07/20 06:01:55;;;;;;;2.35;1.67;;;;;;;;;;5067295;28;20131;-69
2023/07/20 06:04:21;;;;;;;3.25;1.70;;;;;;;;;;5074079;28;20044;-69
2023/07/20 06:06:47;;;;;;;1.98;1.77;;;;;;;;;;5073351;28;20580;-69
2023/07/20 06:09:14;;;;;;;5.57;1.73;;;;;;;;;;5071910;28;20154;-69
2023/07/20 06:11:40;;;;;;;5.45;1.58;;;;;;;;;;5043687;28;20064;-69
2023/07/20 06:14:06;;;;;;;1.95;1.60;;;;;;;;;;5034374;28;20049;-69
2023/07/20 06:16:32;;;;;;;6.80;1.95;;;;;;;;;;5061532;28;20036;-69
2023/07/20 06:18:59;;;;;;;3.78;1.85;;;;;;;;;;5054778;28;20075;-69
2023/07/20 06:21:25;;;;;;;1.85;1.70;;;;;;;;;;5068557;28;20326;-69
2023/07/20 06:23:51;;;;;;;2.75;1.75;;;;;;;;;;5053733;28;20145;-69
2023/07/20 06:26:17;;;;;;;3.10;1.75;;;;;;;;;;5055841;28;20087;-69
2023/07/20 06:28:43;;;;;;;3.78;1.80;;;;;;;;;;5071189;28;20143;-69
2023/07/20 06:31:09;;;;;;;4.25;2.10;;;;;;;;;;5072172;28;20045;-69
2023/07/20 06:33:35;;;;;;;3.53;1.98;;;;;;;;;;5071239;28;20044;-70
2023/07/20 06:36:01;;;;;;;3.53;2.00;;;;;;;;;;5064129;28;20123;-70
2023/07/20 06:38:28;;;;;;;4.40;2.20;;;;;;;;;;5055552;28;20056;-69
2023/07/20 06:40:54;;;;;;;2.72;1.80;;;;;;;;;;5054977;28;20048;-69
2023/07/20 06:43:20;;;;;;;2.30;2.10;;;;;;;;;;5069919;28;20048;-69
2023/07/20 06:45:52;;;;;;;4.07;2.08;;;;;;;;;;5052710;28;20446;-69
2023/07/20 06:48:18;;;;;;;2.47;1.80;;;;;;;;;;5048820;28;20040;-70
2023/07/20 06:50:44;;;;;;;4.53;1.80;;;;;;;;;;5063475;28;20378;-69
2023/07/20 06:53:10;;;;;;;3.15;1.90;;;;;;;;;;5072582;28;20491;-69
2023/07/20 06:55:36;;;;;;;4.25;2.20;;;;;;;;;;5072604;28;20041;-69
2023/07/20 06:58:02;;;;;;;4.47;2.28;;;;;;;;;;5065843;28;20097;-69
2023/07/20 07:00:29;;;;;;;2.97;2.10;;;;;;;;;;5071930;28;20047;-69
2023/07/20 07:02:55;;;;;;;4.22;2.10;;;;;;;;;;5047781;28;20045;-69
2023/07/20 07:05:21;;;;;;;4.47;2.05;;;;;;;;;;5069876;28;20044;-69
2023/07/20 07:07:47;;;;;;;2.22;2.03;;;;;;;;;;5072487;28;20098;-69
2023/07/20 07:10:13;;;;;;;4.38;2.30;;;;;;;;;;5063321;28;20404;-69
2023/07/20 07:12:39;;;;;;;4.68;2.20;;;;;;;;;;5063092;28;20048;-69
2023/07/20 07:15:06;;;;;;;3.53;2.00;;;;;;;;;;5050800;28;20047;-69
2023/07/20 07:17:32;;;;;;;3.17;2.10;;;;;;;;;;5052327;28;20128;-69
2023/07/20 07:19:58;;;;;;;2.58;2.30;;;;;;;;;;5047778;28;20488;-69
2023/07/20 07:22:25;;;;;;;2.92;2.33;;;;;;;;;;5050387;28;20051;-69
2023/07/20 07:24:51;;;;;;;6.03;2.30;;;;;;;;;;5051704;28;20053;-69
2023/07/20 07:27:20;;;;;;;5.70;2.90;;;;;;;;;;5034242;28;20053;-69
2023/07/20 07:29:46;;;;;;;3.40;2.05;;;;;;;;;;5052367;28;20070;-69
2023/07/20 07:32:12;;;;;;;5.10;2.55;;;;;;;;;;5052126;28;20064;-69
2023/07/20 07:34:38;;;;;;;7.45;2.70;;;;;;;;;;5051839;28;20499;-69
2023/07/20 07:37:05;;;;;;;3.28;2.33;;;;;;;;;;5067237;28;20048;-69
2023/07/20 07:39:31;;;;;;;3.30;2.35;;;;;;;;;;5071494;28;20377;-70
2023/07/20 07:41:58;;;;;;;4.57;2.40;;;;;;;;;;5056445;28;20404;-69
2023/07/20 07:44:24;;;;;;;5.57;2.80;;;;;;;;;;5051958;28;20399;-69
2023/07/20 07:46:50;;;;;;;4.22;2.75;;;;;;;;;;5051356;28;20443;-69
2023/07/20 07:49:19;;;;;;;4.35;2.47;;;;;;;;;;5034072;28;20049;-69
2023/07/20 07:51:46;;;;;;;5.53;2.70;;;;;;;;;;5034085;28;20132;-69
2023/07/20 07:54:12;;;;;;;2.90;2.40;;;;;;;;;;5049891;28;20159;-69
2023/07/20 07:56:38;;;;;;;3.97;2.50;;;;;;;;;;5054196;28;20048;-69
2023/07/20 07:59:04;;;;;;;4.45;2.30;;;;;;;;;;5066957;28;20056;-69
2023/07/20 08:01:30;;;;;;;4.70;2.83;;;;;;;;;;5051999;28;20447;-69
2023/07/20 08:03:57;;;;;;;3.47;2.45;;;;;;;;;;5051320;28;20098;-70
2023/07/20 08:06:23;;;;;;;3.85;2.72;;;;;;;;;;5051377;28;20510;-68
2023/07/20 08:08:50;;;;;;;4.93;2.80;;;;;;;;;;5051570;28;20078;-69
2023/07/20 08:11:17;;;;;;;4.60;2.63;;;;;;;;;;5047405;28;20045;-69
2023/07/20 08:13:44;;;;;;;2.92;2.30;;;;;;;;;;5050831;28;20102;-68
2023/07/20 08:16:10;;;;;;;5.00;2.60;;;;;;;;;;5067817;28;20399;-69
2023/07/20 08:18:36;;;;;;;4.53;2.70;;;;;;;;;;5043390;28;20077;-69
2023/07/20 08:21:02;;;;;;;3.08;2.78;;;;;;;;;;5033249;28;20060;-69
2023/07/20 08:23:28;;;;;;;5.40;2.63;;;;;;;;;;5034170;28;20182;-69
2023/07/20 08:25:55;;;;;;;5.22;2.67;;;;;;;;;;5062856;28;20041;-69
2023/07/20 08:28:21;;;;;;;3.13;2.60;;;;;;;;;;5049329;28;20381;-69
2023/07/20 08:30:48;;;;;;;4.78;2.75;;;;;;;;;;5053673;28;20052;-69
2023/07/20 08:33:15;;;;;;;3.90;2.67;;;;;;;;;;5050032;28;20120;-69
2023/07/20 08:35:41;;;;;;;8.52;3.20;;;;;;;;;;5048944;28;20071;-69
2023/07/20 08:38:07;;;;;;;4.03;3.05;;;;;;;;;;5040760;28;20480;-69
2023/07/20 08:40:34;;;;;;;5.65;3.20;;;;;;;;;;5075399;28;20118;-69
2023/07/20 08:43:01;;;;;;;5.35;3.10;;;;;;;;;;5065565;28;20057;-70
2023/07/20 08:45:29;;;;;;;6.22;3.13;;;;;;;;;;5055975;28;20048;-69
2023/07/20 08:47:59;;;;;;;5.65;3.00;;;;;;;;;;5075101;28;20135;-69
2023/07/20 08:50:32;;;;;;;7.03;3.10;;;;;;;;;;5053390;28;20056;-70
2023/07/20 08:52:58;;;;;;;8.52;3.33;;;;;;;;;;5037574;28;20044;-69
2023/07/20 08:55:26;;;;;;;4.45;2.80;;;;;;;;;;5059774;28;20045;-69
2023/07/20 08:57:54;;;;;;;6.65;2.88;;;;;;;;;;5074703;28;20114;-69
2023/07/20 09:00:21;;;;;;;7.55;2.97;;;;;;;;;;5049351;28;20049;-69
2023/07/20 09:02:48;;;;;;;7.88;3.33;;;;;;;;;;5070498;28;20512;-69
2023/07/20 09:05:14;;;;;;;4.97;2.80;;;;;;;;;;5070085;28;20036;-69
2023/07/20 09:07:41;;;;;;;4.63;2.78;;;;;;;;;;5063521;28;20037;-69
2023/07/20 09:10:07;;;;;;;8.18;3.13;;;;;;;;;;5049541;28;20040;-70
2023/07/20 09:12:37;;;;;;;5.18;3.03;;;;;;;;;;5044820;28;20051;-70
2023/07/20 09:15:04;;;;;;;4.07;2.90;;;;;;;;;;5071129;28;20053;-70
2023/07/20 09:17:30;;;;;;;5.28;2.78;;;;;;;;;;5046839;28;20076;-70
2023/07/20 09:19:56;;;;;;;5.70;3.08;;;;;;;;;;5060826;28;20048;-70
2023/07/20 09:22:22;;;;;;;11.00;3.22;;;;;;;;;;5054238;28;20078;-70
2023/07/20 09:24:48;;;;;;;5.32;2.95;;;;;;;;;;5051886;28;20087;-70
2023/07/20 09:27:17;;;;;;;6.38;2.88;;;;;;;;;;5068564;28;20056;-70
2023/07/20 09:29:50;;;;;;;5.95;2.45;;;;;;;;;;5053093;28;20049;-69
2023/07/20 09:32:20;;;;;;;10.13;3.42;;;;;;;;;;5052742;28;20052;-69
2023/07/20 09:34:46;;;;;;;3.85;2.70;;;;;;;;;;5052964;28;20093;-70
2023/07/20 09:37:12;;;;;;;7.05;4.00;;;;;;;;;;5067168;28;20062;-69
2023/07/20 09:39:45;;;;;;;6.10;2.88;;;;;;;;;;5072227;28;20052;-70
2023/07/20 09:42:12;;;;;;;5.78;2.50;;;;;;;;;;5072543;28;20045;-70
2023/07/20 09:44:39;;;;;;;5.88;2.88;;;;;;;;;;5058713;28;20157;-70
2023/07/20 09:47:05;;;;;;;6.57;2.72;;;;;;;;;;5049900;28;20055;-70
2023/07/20 09:49:31;;;;;;;6.97;2.67;;;;;;;;;;5056764;28;20048;-70
2023/07/20 09:52:02;;;;;;;8.55;3.10;;;;;;;;;;5053738;28;20059;-71
2023/07/20 09:54:29;;;;;;;4.55;3.00;;;;;;;;;;5068618;28;20048;-71
2023/07/20 09:56:56;;;;;;;5.72;2.60;;;;;;;;;;5039076;28;20068;-70
2023/07/20 09:59:25;;;;;;;3.42;2.50;;;;;;;;;;5066401;28;20404;-71
2023/07/20 10:01:52;;;;;;;6.40;2.42;;;;;;;;;;5048874;28;20101;-70
2023/07/20 10:04:19;;;;;;;6.35;2.47;;;;;;;;;;5063407;28;20055;-71
2023/07/20 10:06:47;;;;;;;7.10;3.08;;;;;;;;;;5058581;28;20400;-71
2023/07/20 10:09:15;;;;;;;4.07;2.47;;;;;;;;;;5045692;28;20049;-71
2023/07/20 10:11:44;;;;;;;4.57;2.70;;;;;;;;;;5058219;28;20067;-70
2023/07/20 10:14:12;;;;;;;5.80;2.45;;;;;;;;;;5035563;28;20435;-70
2023/07/20 10:16:47;;;;;;;3.58;2.70;;;19.20;99.90;;;;;;5065092;28;20100;-70
2023/07/20 10:19:44;;;;;;;3.33;2.78;;;19.00;99.90;;;;;;5045403;28;20063;-70
2023/07/20 10:22:27;;;;;;;7.28;2.90;;;19.20;99.90;;;;;;5044186;28;20040;-70
2023/07/20 10:24:58;;;;;;;4.93;2.43;;;19.30;99.90;;;;;;5067472;28;20067;-70
2023/07/20 10:27:24;;;;;;;6.28;2.70;;;19.20;99.90;;;;;;5048186;28;20503;-70
2023/07/20 10:29:52;;;;;;;4.43;2.60;;;19.50;99.90;;;;;;5073171;28;20497;-70
2023/07/20 10:32:22;;;;;;;7.53;2.92;;;19.10;99.90;;;;;;5071285;28;20123;-70
2023/07/20 10:34:59;;;;;;;3.20;2.50;;;19.30;99.90;;;;;;5060792;28;20049;-70
2023/07/20 10:37:54;;;;;;;4.45;2.38;;;19.10;99.90;;;;;;5043768;28;20357;-71
2023/07/20 10:40:26;;;;;;;5.35;2.33;;;19.30;99.90;;;;;;5060875;28;20041;-70
2023/07/20 10:43:18;;;;;;;3.80;2.63;;;19.40;99.90;;;;;;5059047;28;20044;-70
2023/07/20 10:45:53;;;;;;;5.05;2.42;;;19.70;99.90;;;;;;5069960;28;20102;-70
2023/07/20 10:48:21;;;;;;;3.70;2.45;;;19.40;99.90;;;;;;5070548;28;20238;-70
2023/07/20 10:51:14;;;;;;;5.10;2.90;;;19.40;99.90;;;;;;5068213;28;20392;-70
2023/07/20 10:53:40;;;;;;;4.10;2.30;;;19.40;99.90;;;;;;5041498;28;20048;-70
2023/07/20 10:56:20;;;;;;;2.75;2.33;;;19.40;99.90;;;;;;5061518;28;20044;-71
2023/07/20 10:58:46;;;;;;;3.25;2.63;;;19.80;99.90;;;;;;5042213;28;20045;-71
2023/07/20 11:01:17;;;;;;;2.97;2.63;;;19.60;99.90;;;;;;5064018;28;20098;-71
2023/07/20 11:03:50;;;;;;;4.88;2.60;;;19.60;99.90;;;;;;5071110;28;20131;-71
2023/07/20 11:06:25;;;;;;;3.28;2.50;;;19.90;99.90;;;;;;5073424;28;20045;-70
2023/07/20 11:09:07;;;;;;;3.75;2.33;;;;;;;;;;5070723;28;20552;-70
2023/07/20 11:11:35;;;;;;;4.07;2.40;;;;;;;;;;5062790;28;20052;-70
2023/07/20 11:14:03;;;;;;;3.53;2.60;;;;;;;;;;5049001;28;20056;-81
2023/07/20 11:16:43;;;;;;;4.93;2.53;;;;;;;;;;5049796;28;20088;-70
2023/07/20 11:19:17;;;;;;;6.25;3.00;;;;;;;;;;5054007;28;20045;-70
2023/07/20 11:21:43;;;;;;;3.40;2.28;;;;;;;;;;5060972;28;20050;-70
2023/07/20 11:24:10;;;;;;;5.88;2.63;;;;;;;;;;5057143;28;20048;-70
2023/07/20 11:26:48;;;;;;;3.17;2.35;;;;;;;;;;5040166;28;20112;-70
2023/07/20 11:29:15;;;;;;;6.82;2.63;;;;;;;;;;5066858;28;20087;-70
2023/07/20 11:31:42;;;;;;;4.10;2.70;;;;;;;;;;5070173;28;20052;-70
2023/07/20 11:34:11;;;;;;;4.28;2.58;;;;;;;;;;5070268;28;20681;-70
2023/07/20 11:36:38;;;;;;;4.15;2.28;;;;;;;;;;5070488;28;20461;-70
2023/07/20 11:39:04;;;;;;;4.18;2.13;;;;;;;;;;5059056;28;20106;-70
2023/07/20 11:41:32;;;;;;;3.22;2.60;;;;;;;;;;5064087;28;20052;-71
2023/07/20 11:43:58;;;;;;;3.40;2.45;;;;;;;;;;5050570;28;20044;-71
2023/07/20 11:46:24;;;;;;;6.72;2.65;;;;;;;;;;5046710;28;20060;-71
2023/07/20 11:48:55;;;;;;;5.68;2.40;;;;;;;;;;5054275;28;20052;-70
2023/07/20 11:51:21;;;;;;;8.13;7.07;;;;;;;;;;5069027;28;20468;-71
2023/07/20 11:53:48;;;;;;;3.33;2.45;;;;;;;;;;5036581;28;20041;-71
2023/07/20 11:56:14;;;;;;;8.32;2.83;;;;;;;;;;5050480;28;20545;-71
2023/07/20 11:58:44;;;;;;;4.03;2.50;;;;;;;;;;5054700;28;20091;-70
2023/07/20 12:01:11;;;;;;;3.38;2.50;;;;;;;;;;5070120;28;20048;-71
2023/07/20 12:03:37;;;;;;;4.82;2.60;;;;;;;;;;5057352;28;20053;-70
2023/07/20 12:06:07;;;;;;;2.88;2.30;;;;;;;;;;5051703;28;20059;-71
2023/07/20 12:08:33;;;;;;;3.58;2.45;;;;;;;;;;5066839;28;20053;-71
2023/07/20 12:10:59;;;;;;;3.88;2.65;;;;;;;;;;5043809;28;20075;-71
2023/07/20 12:13:36;;;;;;;3.15;2.20;;;;;;;;;;5045436;28;20529;-71
2023/07/20 12:16:07;;;;;;;2.50;2.30;;;;;;;;;;5064342;28;20404;-71
2023/07/20 12:18:36;;;;;;;2.78;2.40;;;;;;;;;;5061586;28;20045;-71
2023/07/20 12:21:02;;;;;;;5.72;2.35;;;20.70;99.90;;;;;;5056497;28;20036;-71
2023/07/20 12:23:36;;;;;;;5.43;2.38;;;20.80;99.90;;;;;;5066670;28;20047;-71
2023/07/20 12:26:03;;;;;;;4.43;2.42;;;20.70;99.90;;;;;;5065043;28;20041;-71
2023/07/20 12:28:29;;;;;;;2.72;2.53;;;20.80;99.90;;;;;;5070948;28;20108;-71
2023/07/20 12:30:56;;;;;;;3.40;2.50;;;21.00;99.90;;;;;;5047353;28;20041;-71
2023/07/20 12:33:22;;;;;;;4.68;2.95;;;21.00;99.90;;;;;;5056598;28;20462;-71
2023/07/20 12:35:55;;;;;;;3.53;2.70;;;21.00;99.90;;;;;;5061894;28;20037;-71
2023/07/20 12:38:21;;;;;;;3.72;2.22;;;21.10;99.90;;;;;;5051324;28;20045;-71
2023/07/20 12:40:47;;;;;;;2.72;2.53;;;21.30;99.90;;;;;;5050097;28;20581;-71
2023/07/20 12:43:16;;;;;;;5.75;2.30;;;21.30;99.90;;;;;;5033978;28;20044;-70
2023/07/20 12:45:44;;;;;;;4.13;2.50;;;21.50;99.90;;;;;;5057068;28;20044;-71
2023/07/20 12:48:10;;;;;;;6.75;2.85;;;21.50;99.90;;;;;;5054358;28;20132;-70
2023/07/20 12:50:35;;;;;;;5.05;2.92;;;21.70;99.90;;;;;;5059491;28;20036;-71
2023/07/20 12:53:03;;;;;;;4.32;2.55;;;21.80;99.90;;;;;;5065757;28;20055;-71
2023/07/20 12:55:29;;;;;;;4.65;2.53;;;21.80;99.90;;;;;;5054905;28;20404;-71
2023/07/20 12:57:57;;;;;;;3.00;2.58;;;21.70;99.90;;;;;;5056747;28;20037;-71
2023/07/20 13:00:26;;;;;;;3.03;2.55;;;21.90;99.90;;;;;;5053310;28;20055;-71
2023/07/20 13:02:52;;;;;;;2.90;2.50;;;21.60;99.90;;;;;;5049811;28;20037;-71
2023/07/20 13:05:18;;;;;;;3.88;2.47;;;;;;;;;;5065903;28;20442;-71
2023/07/20 13:07:44;;;;;;;4.05;2.78;;;21.90;99.90;;;;;;5052623;28;20044;-71
2023/07/20 13:10:11;;;;;;;4.97;2.13;;;22.00;99.90;;;;;;5055615;28;20048;-71
2023/07/20 13:12:37;;;;;;;3.30;2.45;;;22.10;99.90;;;;;;5052205;28;20235;-71
2023/07/20 13:15:07;;;;;;;4.78;2.30;;;22.10;99.90;;;;;;5053357;28;20068;-71
2023/07/20 13:17:38;;;;;;;2.40;2.20;;;22.10;99.90;;;;;;5052558;28;20207;-71
2023/07/20 13:20:06;;;;;;;2.80;2.40;;;22.10;99.90;;;;;;5071832;28;20131;-71
2023/07/20 13:22:32;;;;;;;3.67;2.42;;;22.00;99.90;;;;;;5074323;28;20041;-71
2023/07/20 13:24:57;;;;;;;3.05;2.28;;;22.10;99.90;;;;;;5055122;28;20043;-71
2023/07/20 13:27:25;;;;;;;4.70;2.50;;;22.10;99.90;;;;;;5069493;28;20088;-71
2023/07/20 13:29:53;;;;;;;4.47;2.28;;;22.10;99.90;;;;;;5071212;28;20057;-71
2023/07/20 13:32:19;;;;;;;2.92;2.20;;;22.20;99.90;;;;;;5066966;28;20496;-71
2023/07/20 13:34:45;;;;;;;5.32;2.47;;;22.30;99.90;;;;;;5039851;28;20075;-70
2023/07/20 13:37:11;;;;;;;2.67;2.00;;;22.30;99.90;;;;;;5055228;28;20068;-70
2023/07/20 13:39:37;;;;;;;3.92;2.00;;;22.40;99.90;;;;;;5069690;28;20117;-71
2023/07/20 13:42:05;;;;;;;3.83;2.25;;;22.50;99.90;;;;;;5054306;28;20120;-71
2023/07/20 13:44:34;;;;;;;3.33;2.15;;;22.60;99.90;;;;;;5058988;28;20110;-71
2023/07/20 13:47:01;;;;;;;3.30;2.33;;;22.70;99.90;;;;;;5069622;28;20040;-71
2023/07/20 13:49:26;;;;;;;2.63;2.03;;;22.70;99.90;;;;;;5062143;28;20082;-71
2023/07/20 13:51:52;;;;;;;3.58;2.45;;;22.90;99.90;;;;;;5072600;28;20867;-71
2023/07/20 13:54:18;;;;;;;4.03;2.20;;;22.90;99.90;;;;;;5069577;28;20036;-71
2023/07/20 13:56:43;;;;;;;2.40;2.08;;;23.00;99.90;;;;;;5053460;28;20071;-71
2023/07/20 13:59:09;;;;;;;2.17;1.98;;;23.00;99.90;;;;;;5049430;28;20053;-71
2023/07/20 14:01:35;;;;;;;3.65;2.35;;;23.10;99.90;;;;;;5051006;28;20041;-71
2023/07/20 14:04:01;;;;;;;2.42;2.10;;;23.20;99.90;;;;;;5054609;28;20055;-71
2023/07/20 14:06:30;;;;;;;4.25;1.90;;;23.30;99.90;;;;;;5053475;28;20041;-71
2023/07/20 14:08:56;;;;;;;3.78;2.00;;;23.30;99.90;;;;;;5053014;28;20061;-72
2023/07/20 14:11:23;;;;;;;2.17;1.90;;;23.40;99.90;;;;;;5072411;28;20056;-71
2023/07/20 14:13:50;;;;;;;2.55;1.90;;;;;;;;;;5068704;28;20120;-71
2023/07/20 14:16:16;;;;;;;2.83;2.17;;;;;;;;;;5067056;28;20067;-71
2023/07/20 14:18:42;;;;;;;2.58;2.00;;;;;;;;;;5051542;28;20053;-70
2023/07/20 14:21:08;;;;;;;4.43;2.30;;;;;;;;;;5070917;28;20601;-70